Chattanooga, TN (37401)

5:58 PM EST on December 10, 2016 (GMT -0500)
Southside Village | | Change Station

Elev 673 ft 35.03 °N, 85.30 °W | Updated 24 seconds ago

Clear
Clear
43.9 °F
Feels Like 44 °F
N
0.0
Wind Variable Wind from East
Gusts 0.0 mph

Today
High -- | Low -- °F
--% Chance of Precip.
Yesterday
High -- | Low -- °F
Precip. -- in
Pressure 30.47 in
Visibility 10.0 miles
Clouds Few 25000 ft
Windchill 44 °F
Dew Point 19 °F
Humidity 37%
Rainfall 0.00 in
Snow Depth Not available.
7:38 AM 5:29 PM
Waxing Gibbous, 87% visible
METAR KCHA 102253Z 03004KT 10SM FEW250 04/M13 A3045 RMK AO2 SLP316 T00441133
Pressure 30.47 in
Visibility 10.0 miles
Clouds Few 25000 ft
Windchill 44 °F
Dew Point 19 °F
Humidity 37%
Rainfall 0.00 in
Snow Depth Not available.
7:38 AM 5:29 PM
Waxing Gibbous, 87% visible
METAR KCHA 102253Z 03004KT 10SM FEW250 04/M13 A3045 RMK AO2 SLP316 T00441133

10-Day Weather Forecast

Almanac

Astronomy

Dec. 10, 2016 Rise Set
Actual Time
Civil Twilight
Nautical Twilight
Astronomical Twilight
Moon
Length of Visible Light
Length of Day
Tomorrow will be .
, % of the Moon is Illuminated

Today's Extremes

State Highs State Lows

Community

WunderPhotos

Upload Photos

1,956,672 photos uploaded!

WunderBlog® & News

Nearby

Air Quality

  Air Quality AQ Index Pollutant
Not available.

Snow Depth

Station Depth Elevation

Earthquake Activity

City Distance Mag. Time & Date
Minimum magnitude displayed is 2.5.

Coastal Water Temperatures

Place Temperature

Stations

Nearby Weather Stations

Station Location Temp. Windchill Dew Point Humidity Wind Precip. Elev Updated Type
                   

Watches & Warnings

There are currently no watches in effect.